Terminal Aerodrome Forecast
Issued by NWS

Home | Current Version | Previous Version | Text Only | Print | Product List | Glossary On
Versions: 1 2 3 4 5 6 7 8 9 10 11 12 13 14 15 16 17 18 19 20
000
FTUS45 KFGZ 272300
TAFGCN
TAF
KGCN 272338Z 2800/2824 29008KT P6SM SCT050
     FM280300 VRB03KT P6SM FEW050
     FM281800 28006KT P6SM FEW070
      AMD NOT SKED=

USA.gov is the U.S. government's official web portal to all federal, state and local government web resources and services.